YPPD/PHE METAR and TAF weather

Enter ICAO airport designator
Station Type Date Time Source
YPPD METAR 2020/07/15 01:30 UTC NOAA

YPPD 150130Z AUTO 07011KT 9999 // NCD 24/01 Q1018 RF00.0/000.0


Station Type Date Time Source
YPPD Decoded METAR 2020/07/15 01:30 UTC NOAA

Port Hedland Pardoo, Australia (YPPD) 20-06S 119-34E 10M
Jul 14, 2020 - 09:30 PM EDT / 2020.07.15 0130 UTC
Wind: from the ENE (070 degrees) at 13 MPH (11 KT):0
Visibility: greater than 7 mile(s):0
Temperature: 75 F (24 C)
Dew Point: 33 F (1 C)
Relative Humidity: 22%
Pressure (altimeter): 30.06 in. Hg (1018 hPa)
ob: YPPD 150130Z AUTO 07011KT 9999 // NCD 24/01 Q1018 RF00.0/000.0
cycle: 1

Station Type Date Time Source
YPPD TAF 2020/07/14 18:36 UTC NOAA

TAF YPPD 141730Z 1418/1518 14005KT CAVOK
FM150000 09012KT CAVOK
FM150500 03012KT CAVOK
FM151400 13008KT CAVOK

Example: see airport list